Time;durP1;ratioP1;P1;durP2;ratioP2;P2;SDS_P1;SDS_P2;PMS_P1;PMS_P2;Temp;Humidity;BMP_temperature;BMP_pressure;BME280_temperature;BME280_humidity;BME280_pressure;Samples;Min_cycle;Max_cycle;Signal;HPM_P1;HPM_P2
2024/03/04 00:00:20;;;;;;;28.60;17.65;;;8.60;99.90;;;;;;4951293;28;20050;-84
2024/03/04 00:02:55;;;;;;;35.35;19.80;;;8.60;99.90;;;;;;4939154;29;20138;-82
2024/03/04 00:05:22;;;;;;;29.23;17.48;;;8.70;99.90;;;;;;4935935;28;20058;-87
2024/03/04 00:07:49;;;;;;;31.10;17.67;;;8.80;99.90;;;;;;4952732;28;20427;-82
2024/03/04 00:10:16;;;;;;;32.67;19.20;;;8.80;99.90;;;;;;4960107;28;20050;-82
2024/03/04 00:12:44;;;;;;;29.50;17.55;;;8.80;99.90;;;;;;4958580;28;20144;-83
2024/03/04 00:15:13;;;;;;;30.60;19.15;;;8.90;99.90;;;;;;4959628;28;20085;-83
2024/03/04 00:17:40;;;;;;;30.30;18.02;;;8.90;99.90;;;;;;4925859;28;20487;-82
2024/03/04 00:20:10;;;;;;;30.85;17.65;;;8.90;99.90;;;;;;4957623;28;20495;-84
2024/03/04 00:22:42;;;;;;;30.63;17.85;;;8.90;99.90;;;;;;4941671;28;20193;-83
2024/03/04 00:25:14;;;;;;;29.63;15.63;;;8.90;99.90;;;;;;4949326;28;20510;-83
2024/03/04 00:27:45;;;;;;;23.20;14.02;;;8.90;99.90;;;;;;4930750;28;20450;-82
2024/03/04 00:30:13;;;;;;;33.78;19.92;;;8.90;99.90;;;;;;4941880;28;20495;-82
2024/03/04 00:32:40;;;;;;;37.67;20.55;;;8.90;99.90;;;;;;4990607;28;20403;-82
2024/03/04 00:35:09;;;;;;;32.05;18.13;;;8.90;99.90;;;;;;4959997;28;20086;-85
2024/03/04 00:37:41;;;;;;;31.60;18.50;;;8.90;99.90;;;;;;4953549;28;20053;-84
2024/03/04 00:40:08;;;;;;;30.70;17.38;;;9.00;99.90;;;;;;4955675;28;20046;-85
2024/03/04 00:42:38;;;;;;;32.83;17.17;;;9.00;99.90;;;;;;4941098;28;20054;-80
2024/03/04 00:45:06;;;;;;;31.30;17.67;;;9.00;99.90;;;;;;4930683;28;20082;-78
2024/03/04 00:47:33;;;;;;;32.17;18.00;;;9.00;99.90;;;;;;4989708;28;20065;-80
2024/03/04 00:50:04;;;;;;;30.63;18.65;;;9.00;99.90;;;;;;4959951;28;20052;-78
2024/03/04 00:52:31;;;;;;;35.33;20.30;;;9.00;99.90;;;;;;4974185;28;20039;-78
2024/03/04 00:54:58;;;;;;;40.72;21.00;;;9.00;99.90;;;;;;4919087;28;20070;-80
2024/03/04 00:57:25;;;;;;;35.22;20.88;;;9.00;99.90;;;;;;4958356;28;20058;-80
2024/03/04 00:59:53;;;;;;;40.10;20.58;;;9.00;99.90;;;;;;4952152;28;20043;-80
2024/03/04 01:02:20;;;;;;;34.85;19.42;;;9.00;99.90;;;;;;4934147;28;20045;-78
2024/03/04 01:04:50;;;;;;;37.05;20.95;;;9.00;99.90;;;;;;4980329;28;20042;-78
2024/03/04 01:07:19;;;;;;;37.55;20.88;;;8.90;99.90;;;;;;4961178;28;20046;-80
2024/03/04 01:09:46;;;;;;;38.08;21.42;;;8.90;99.90;;;;;;4961784;28;20047;-78
2024/03/04 01:12:14;;;;;;;36.53;19.80;;;8.90;99.90;;;;;;4933139;28;20456;-78
2024/03/04 01:14:41;;;;;;;39.45;23.17;;;8.90;99.90;;;;;;4925243;29;20055;-79
2024/03/04 01:17:12;;;;;;;31.90;18.90;;;8.90;99.90;;;;;;4966054;28;20043;-80
2024/03/04 01:19:45;;;;;;;30.65;17.88;;;8.90;99.90;;;;;;4957307;28;20102;-80
2024/03/04 01:22:17;;;;;;;34.67;20.25;;;8.90;99.90;;;;;;4957194;28;20480;-80
2024/03/04 01:24:49;;;;;;;34.95;19.52;;;8.90;99.90;;;;;;4974270;28;20098;-80
2024/03/04 01:27:17;;;;;;;28.77;17.17;;;8.90;99.90;;;;;;4972483;28;20053;-78
2024/03/04 01:29:44;;;;;;;28.10;16.08;;;8.90;99.90;;;;;;4947848;28;20050;-78
2024/03/04 01:32:11;;;;;;;29.08;16.77;;;8.90;99.90;;;;;;4957136;28;20067;-78
2024/03/04 01:34:41;;;;;;;30.98;18.73;;;8.90;99.90;;;;;;4966164;28;20047;-80
2024/03/04 01:37:12;;;;;;;29.92;17.60;;;8.90;99.90;;;;;;4968192;28;20046;-79
2024/03/04 01:39:39;;;;;;;29.83;16.52;;;8.90;99.90;;;;;;4970061;28;20046;-79
2024/03/04 01:42:08;;;;;;;25.70;16.05;;;8.80;99.90;;;;;;4960008;28;20051;-80
2024/03/04 01:44:38;;;;;;;28.75;17.83;;;8.80;99.90;;;;;;4968514;28;20521;-77
2024/03/04 01:47:14;;;;;;;27.60;15.75;;;8.80;99.90;;;;;;4923157;28;20420;-77
2024/03/04 01:49:42;;;;;;;26.35;15.27;;;8.80;99.90;;;;;;4949763;29;20412;-79
2024/03/04 01:52:11;;;;;;;27.80;15.80;;;8.80;99.90;;;;;;4952473;28;20163;-79
2024/03/04 01:54:41;;;;;;;27.85;14.52;;;8.80;99.90;;;;;;4964577;28;20046;-79
2024/03/04 01:57:11;;;;;;;25.85;14.55;;;8.80;99.90;;;;;;4968298;28;20866;-78
2024/03/04 01:59:39;;;;;;;23.98;13.32;;;8.80;99.90;;;;;;4945627;28;20495;-79
2024/03/04 02:02:08;;;;;;;29.70;17.40;;;8.80;99.90;;;;;;4934581;28;20043;-79
2024/03/04 02:04:36;;;;;;;28.73;16.55;;;8.80;99.90;;;;;;4950178;28;20053;-79
2024/03/04 02:07:03;;;;;;;32.47;18.33;;;8.80;99.90;;;;;;4939550;28;20057;-77
2024/03/04 02:09:31;;;;;;;26.45;15.95;;;8.80;99.90;;;;;;4959661;28;20056;-76
2024/03/04 02:11:59;;;;;;;27.48;16.00;;;8.80;99.90;;;;;;4942863;28;20462;-78
2024/03/04 02:14:26;;;;;;;34.33;18.13;;;8.90;99.90;;;;;;4958603;28;20105;-79
2024/03/04 02:16:53;;;;;;;27.40;16.92;;;8.80;99.90;;;;;;4958659;28;20046;-78
2024/03/04 02:19:21;;;;;;;26.92;15.13;;;8.80;99.90;;;;;;4957153;28;20124;-78
2024/03/04 02:21:56;;;;;;;33.35;18.88;;;8.90;99.90;;;;;;4938495;28;20050;-79
2024/03/04 02:24:23;;;;;;;40.95;22.75;;;8.80;99.90;;;;;;4958861;28;20055;-78
2024/03/04 02:26:53;;;;;;;33.33;17.42;;;8.80;99.90;;;;;;4976884;28;20053;-79
2024/03/04 02:29:20;;;;;;;33.95;19.38;;;8.80;99.90;;;;;;4954462;28;20043;-79
2024/03/04 02:31:47;;;;;;;36.03;19.17;;;8.80;99.90;;;;;;4976038;28;20050;-79
2024/03/04 02:34:17;;;;;;;44.47;25.13;;;8.90;99.90;;;;;;4953561;28;20047;-79
2024/03/04 02:36:44;;;;;;;43.15;21.77;;;8.80;99.90;;;;;;4962748;28;20043;-80
2024/03/04 02:39:12;;;;;;;41.88;23.45;;;8.80;99.90;;;;;;4928696;29;20507;-78
2024/03/04 02:41:40;;;;;;;38.75;21.45;;;8.90;99.90;;;;;;4936409;29;20516;-80
2024/03/04 02:44:08;;;;;;;41.05;22.73;;;8.80;99.90;;;;;;4949371;28;20061;-78
2024/03/04 02:46:38;;;;;;;33.05;18.27;;;8.90;99.90;;;;;;4958743;28;20400;-79
2024/03/04 02:49:05;;;;;;;30.45;17.83;;;8.90;99.90;;;;;;4974412;28;20065;-78
2024/03/04 02:51:33;;;;;;;34.30;19.00;;;8.90;99.90;;;;;;4942485;28;20043;-78
2024/03/04 02:54:00;;;;;;;33.33;19.20;;;8.90;99.90;;;;;;4925582;29;20051;-78
2024/03/04 02:56:27;;;;;;;31.30;17.83;;;8.80;99.90;;;;;;4939276;29;20055;-79
2024/03/04 02:58:54;;;;;;;30.23;17.00;;;8.80;99.90;;;;;;4939179;28;20038;-79
2024/03/04 03:01:26;;;;;;;26.38;15.98;;;8.80;99.90;;;;;;4975648;28;20526;-79
2024/03/04 03:03:53;;;;;;;32.58;16.83;;;8.80;99.90;;;;;;4957313;28;20082;-78
2024/03/04 03:06:20;;;;;;;23.48;14.25;;;8.80;99.90;;;;;;4952891;28;20051;-79
2024/03/04 03:08:49;;;;;;;24.67;13.57;;;8.80;99.90;;;;;;4966107;28;20058;-78
2024/03/04 03:11:19;;;;;;;24.08;12.88;;;8.70;99.90;;;;;;4929642;28;20419;-78
2024/03/04 03:13:46;;;;;;;19.58;11.60;;;8.70;99.90;;;;;;4956283;28;20054;-78
2024/03/04 03:16:20;;;;;;;23.85;13.02;;;8.70;99.90;;;;;;4957079;28;20042;-78
2024/03/04 03:18:51;;;;;;;20.20;12.25;;;8.70;99.90;;;;;;4952659;28;20504;-80
2024/03/04 03:21:19;;;;;;;18.48;9.35;;;8.70;99.90;;;;;;4958244;28;20113;-79
2024/03/04 03:23:50;;;;;;;19.45;9.15;;;8.60;99.90;;;;;;4948600;28;20097;-79
2024/03/04 03:26:18;;;;;;;14.85;8.20;;;8.60;99.90;;;;;;4962751;28;20039;-80
2024/03/04 03:28:45;;;;;;;17.63;8.40;;;8.70;99.90;;;;;;4953450;28;20047;-78
2024/03/04 03:31:12;;;;;;;13.40;7.30;;;8.60;99.90;;;;;;4951469;28;20072;-78
2024/03/04 03:33:39;;;;;;;12.85;6.20;;;8.70;99.90;;;;;;4939644;28;20484;-78
2024/03/04 03:36:06;;;;;;;14.60;7.55;;;8.70;99.90;;;;;;4970845;28;20046;-80
2024/03/04 03:38:33;;;;;;;12.88;6.53;;;8.70;99.90;;;;;;4946719;28;20042;-78
2024/03/04 03:41:03;;;;;;;11.40;5.05;;;8.70;99.90;;;;;;4960677;28;20411;-78
2024/03/04 03:43:30;;;;;;;11.05;5.00;;;8.70;99.90;;;;;;4959562;28;20042;-77
2024/03/04 03:45:57;;;;;;;10.05;5.05;;;8.70;99.90;;;;;;4933788;29;20047;-79
2024/03/04 03:48:25;;;;;;;9.98;4.28;;;8.70;99.90;;;;;;4967400;28;20051;-81
2024/03/04 03:50:53;;;;;;;9.50;3.97;;;8.70;99.90;;;;;;4966133;28;20045;-80
2024/03/04 03:53:22;;;;;;;7.75;4.20;;;8.70;99.90;;;;;;4955973;28;20060;-80
2024/03/04 03:55:50;;;;;;;9.75;4.70;;;8.80;99.90;;;;;;4940622;28;20414;-78
2024/03/04 03:58:19;;;;;;;11.57;5.57;;;8.80;99.90;;;;;;4952155;28;20145;-80
2024/03/04 04:00:46;;;;;;;9.95;4.07;;;8.70;99.90;;;;;;4953825;29;20067;-79
2024/03/04 04:03:13;;;;;;;7.28;3.65;;;8.70;99.90;;;;;;4949068;28;20534;-78
2024/03/04 04:05:40;;;;;;;7.65;3.20;;;8.70;99.90;;;;;;4926899;28;20047;-78
2024/03/04 04:08:07;;;;;;;10.40;4.38;;;8.70;99.90;;;;;;4975022;28;20050;-78
2024/03/04 04:10:34;;;;;;;8.00;4.28;;;8.70;99.90;;;;;;4960106;28;20054;-78
2024/03/04 04:13:02;;;;;;;12.15;5.55;;;8.70;99.90;;;;;;4965296;28;20041;-79
2024/03/04 04:15:29;;;;;;;10.18;5.07;;;8.70;99.90;;;;;;4950464;28;20173;-78
2024/03/04 04:17:56;;;;;;;9.90;4.68;;;8.60;99.90;;;;;;4933369;28;20043;-80
2024/03/04 04:20:25;;;;;;;10.45;4.38;;;8.60;99.90;;;;;;4960051;28;20043;-79
2024/03/04 04:22:52;;;;;;;9.02;3.95;;;8.60;99.90;;;;;;4928037;28;20058;-79
2024/03/04 04:25:21;;;;;;;9.00;3.80;;;8.60;99.90;;;;;;4953435;28;20050;-78
2024/03/04 04:27:48;;;;;;;8.48;3.85;;;8.60;99.90;;;;;;4970918;28;20105;-79
2024/03/04 04:30:15;;;;;;;9.80;3.67;;;8.60;99.90;;;;;;4941017;28;20047;-78
2024/03/04 04:32:42;;;;;;;11.00;3.65;;;8.60;99.90;;;;;;4963571;28;20122;-79
2024/03/04 04:35:09;;;;;;;9.18;3.97;;;8.60;99.90;;;;;;4936590;28;20062;-78
2024/03/04 04:37:36;;;;;;;8.23;3.72;;;8.60;99.90;;;;;;4951804;28;20043;-78
2024/03/04 04:40:04;;;;;;;8.32;4.03;;;8.60;99.90;;;;;;4960827;28;20077;-78
2024/03/04 04:42:31;;;;;;;7.57;3.15;;;8.60;99.90;;;;;;4960662;28;20069;-79
2024/03/04 04:44:58;;;;;;;6.97;3.20;;;8.60;99.90;;;;;;4966699;28;20054;-80
2024/03/04 04:47:26;;;;;;;6.82;2.67;;;8.60;99.90;;;;;;4940125;28;20063;-78
2024/03/04 04:49:56;;;;;;;7.03;2.70;;;8.60;99.90;;;;;;4918996;29;20047;-78
2024/03/04 04:52:23;;;;;;;9.35;4.00;;;8.60;99.90;;;;;;4955713;28;20431;-81
2024/03/04 04:54:50;;;;;;;7.30;2.88;;;8.60;99.90;;;;;;4960990;28;20039;-79
2024/03/04 04:57:19;;;;;;;6.53;3.58;;;8.60;99.90;;;;;;4942398;28;20042;-80
2024/03/04 04:59:49;;;;;;;;;;;8.60;99.90;;;;;;4955503;28;20403;-78
2024/03/04 05:02:19;;;;;;;7.80;3.30;;;8.60;99.90;;;;;;4941760;29;19932;-77
2024/03/04 05:04:46;;;;;;;5.82;2.53;;;8.60;99.90;;;;;;4970707;28;20053;-77
2024/03/04 05:07:25;;;;;;;5.07;2.10;;;8.60;99.90;;;;;;4966111;28;20078;-78
2024/03/04 05:09:52;;;;;;;8.25;3.13;;;8.60;99.90;;;;;;4949664;28;20043;-80
2024/03/04 05:12:20;;;;;;;6.10;3.17;;;8.60;99.90;;;;;;4957175;28;20054;-79
2024/03/04 05:14:47;;;;;;;9.05;4.63;;;8.60;99.90;;;;;;4960376;28;20050;-79
2024/03/04 05:17:14;;;;;;;7.65;3.25;;;8.60;99.90;;;;;;4954012;28;20049;-77
2024/03/04 05:19:41;;;;;;;6.45;3.22;;;8.60;99.90;;;;;;4950665;28;20069;-79
2024/03/04 05:22:12;;;;;;;6.32;2.40;;;8.60;99.90;;;;;;4994091;28;20039;-79
2024/03/04 05:24:40;;;;;;;5.95;2.40;;;8.60;99.90;;;;;;4961755;28;20042;-77
2024/03/04 05:27:07;;;;;;;6.63;3.22;;;8.60;99.90;;;;;;4947618;28;20483;-80
2024/03/04 05:29:34;;;;;;;6.18;3.17;;;8.60;99.90;;;;;;4935632;28;20050;-78
2024/03/04 05:32:01;;;;;;;10.85;4.45;;;8.60;99.90;;;;;;4944972;28;20045;-79
2024/03/04 05:34:28;;;;;;;9.65;4.35;;;8.60;99.90;;;;;;4978870;28;20042;-79
2024/03/04 05:36:55;;;;;;;11.38;4.97;;;8.60;99.90;;;;;;4960014;28;20506;-78
2024/03/04 05:39:23;;;;;;;10.02;4.43;;;8.60;99.90;;;;;;4933116;28;20491;-80
2024/03/04 05:41:50;;;;;;;7.90;4.55;;;8.50;99.90;;;;;;4991465;28;20063;-78
2024/03/04 05:44:17;;;;;;;5.07;2.70;;;8.50;99.90;;;;;;4970075;28;20138;-78
2024/03/04 05:46:45;;;;;;;8.40;3.75;;;8.60;99.90;;;;;;4960069;28;20055;-79
2024/03/04 05:49:12;;;;;;;8.73;3.30;;;8.60;99.90;;;;;;4933281;29;20125;-78
2024/03/04 05:51:44;;;;;;;6.88;3.25;;;8.60;99.90;;;;;;4933349;28;20495;-78
2024/03/04 05:54:11;;;;;;;8.95;3.83;;;8.60;99.90;;;;;;4957634;29;20044;-79
2024/03/04 05:56:43;;;;;;;6.07;2.83;;;8.50;99.90;;;;;;4958160;28;20126;-78
2024/03/04 05:59:10;;;;;;;5.65;2.25;;;8.60;99.90;;;;;;4977312;28;20104;-79
2024/03/04 06:01:38;;;;;;;5.40;2.30;;;8.60;99.90;;;;;;4963051;28;20043;-78
2024/03/04 06:04:05;;;;;;;4.95;2.55;;;8.60;99.90;;;;;;4928115;28;20081;-78
2024/03/04 06:06:33;;;;;;;7.65;2.50;;;8.60;99.90;;;;;;4976948;28;20074;-80
2024/03/04 06:09:03;;;;;;;4.95;2.42;;;8.60;99.90;;;;;;4943420;28;20054;-79
2024/03/04 06:11:30;;;;;;;5.78;2.38;;;8.60;99.90;;;;;;4971658;28;20171;-78
2024/03/04 06:13:58;;;;;;;5.78;2.40;;;8.60;99.90;;;;;;4964928;28;20038;-78
2024/03/04 06:16:25;;;;;;;6.68;2.70;;;8.60;99.90;;;;;;4967656;28;20046;-80
2024/03/04 06:18:52;;;;;;;8.20;2.53;;;8.50;99.90;;;;;;4958208;28;20058;-77
2024/03/04 06:21:19;;;;;;;5.25;2.10;;;8.60;99.90;;;;;;4949078;29;20047;-78
2024/03/04 06:23:48;;;;;;;6.25;2.55;;;8.50;99.90;;;;;;4963868;28;20057;-78
2024/03/04 06:26:18;;;;;;;4.03;2.13;;;8.50;99.90;;;;;;4920704;29;20493;-78
2024/03/04 06:28:45;;;;;;;6.15;2.28;;;8.50;99.90;;;;;;4947039;28;20039;-80
2024/03/04 06:31:23;;;;;;;4.32;1.80;;;8.50;99.90;;;;;;4961028;28;20474;-79
2024/03/04 06:33:50;;;;;;;5.78;1.65;;;8.50;99.90;;;;;;4942886;28;20153;-78
2024/03/04 06:36:20;;;;;;;2.80;1.40;;;8.50;99.90;;;;;;4959392;28;20100;-79
2024/03/04 06:38:56;;;;;;;4.05;1.80;;;8.50;99.90;;;;;;4976723;28;20042;-80
2024/03/04 06:41:23;;;;;;;4.22;1.48;;;8.50;99.90;;;;;;4953502;28;20083;-80
2024/03/04 06:43:50;;;;;;;2.25;0.95;;;8.50;99.90;;;;;;4950031;28;20055;-78
2024/03/04 06:46:17;;;;;;;4.07;1.10;;;8.60;99.90;;;;;;4937154;28;20134;-76
2024/03/04 06:48:44;;;;;;;3.35;1.08;;;8.60;99.90;;;;;;4951374;28;20042;-80
2024/03/04 06:51:11;;;;;;;3.92;1.02;;;8.50;99.90;;;;;;4971707;28;20050;-77
2024/03/04 06:53:38;;;;;;;3.20;0.95;;;8.60;99.90;;;;;;4938149;28;20070;-79
2024/03/04 06:56:08;;;;;;;5.57;1.65;;;8.60;99.90;;;;;;4931643;29;20047;-77
2024/03/04 06:58:36;;;;;;;2.78;0.70;;;8.60;99.90;;;;;;4960726;28;20125;-77
2024/03/04 07:01:04;;;;;;;3.47;0.95;;;8.60;99.90;;;;;;4942379;28;20047;-79
2024/03/04 07:03:32;;;;;;;2.38;0.70;;;8.60;99.90;;;;;;4946747;28;20039;-78
2024/03/04 07:05:59;;;;;;;1.67;0.60;;;8.60;99.90;;;;;;4959286;28;20067;-78
2024/03/04 07:08:26;;;;;;;2.75;0.80;;;8.70;99.90;;;;;;4969493;28;20101;-79
2024/03/04 07:10:57;;;;;;;3.15;1.10;;;8.70;99.90;;;;;;4944818;28;20074;-78
2024/03/04 07:13:25;;;;;;;4.13;1.10;;;8.70;99.90;;;;;;4953523;28;20411;-78
2024/03/04 07:15:52;;;;;;;2.60;0.90;;;8.70;99.90;;;;;;4914741;28;20050;-77
2024/03/04 07:18:20;;;;;;;4.60;1.35;;;8.70;99.90;;;;;;4947551;28;20046;-79
2024/03/04 07:20:47;;;;;;;4.40;1.27;;;8.70;99.90;;;;;;4959036;28;20047;-80
2024/03/04 07:23:19;;;;;;;5.25;1.83;;;8.60;99.90;;;;;;4931188;28;20046;-78
2024/03/04 07:25:46;;;;;;;2.47;0.98;;;8.60;99.90;;;;;;4945279;28;20518;-79
2024/03/04 07:28:14;;;;;;;3.83;1.40;;;8.60;99.90;;;;;;4959651;28;20085;-78
2024/03/04 07:30:41;;;;;;;5.05;1.65;;;8.60;99.90;;;;;;4951636;28;20053;-78
2024/03/04 07:33:11;;;;;;;6.15;1.10;;;8.60;99.90;;;;;;4960886;28;20061;-79
2024/03/04 07:35:38;;;;;;;3.45;1.10;;;8.60;99.90;;;;;;4958138;28;20133;-79
2024/03/04 07:38:05;;;;;;;3.28;1.00;;;8.60;99.90;;;;;;4906343;29;20479;-79
2024/03/04 07:40:32;;;;;;;2.33;0.90;;;8.70;99.90;;;;;;4940839;28;20058;-78
2024/03/04 07:43:01;;;;;;;1.92;0.70;;;8.70;99.90;;;;;;4941678;28;20042;-79
2024/03/04 07:45:29;;;;;;;2.22;0.90;;;8.80;99.90;;;;;;4941906;28;20046;-79
2024/03/04 07:47:56;;;;;;;2.92;1.35;;;8.90;99.90;;;;;;4941698;28;20098;-80
2024/03/04 07:50:25;;;;;;;3.30;1.20;;;8.90;99.90;;;;;;4923556;28;20091;-80
2024/03/04 07:52:52;;;;;;;3.00;1.35;;;8.90;99.90;;;;;;4957168;28;20157;-78
2024/03/04 07:55:19;;;;;;;2.63;0.88;;;8.90;99.90;;;;;;4941764;28;20154;-79
2024/03/04 07:57:50;;;;;;;3.03;1.20;;;8.90;99.90;;;;;;4932981;29;20047;-79
2024/03/04 08:00:17;;;;;;;2.53;1.02;;;9.00;99.90;;;;;;4943515;28;20138;-78
2024/03/04 08:02:45;;;;;;;1.67;0.60;;;9.00;99.90;;;;;;4957814;28;20049;-78
2024/03/04 08:05:12;;;;;;;2.63;0.80;;;9.00;99.90;;;;;;4935967;28;20047;-78
2024/03/04 08:07:39;;;;;;;2.83;1.20;;;9.00;99.90;;;;;;4955054;28;20050;-82
2024/03/04 08:10:08;;;;;;;2.55;1.15;;;9.00;99.90;;;;;;4958150;28;20046;-82
2024/03/04 08:12:36;;;;;;;2.60;0.90;;;9.00;99.90;;;;;;4940890;29;20043;-82
2024/03/04 08:15:04;;;;;;;3.05;1.00;;;9.00;99.90;;;;;;4959962;28;20050;-82
2024/03/04 08:17:32;;;;;;;2.00;0.80;;;9.00;99.90;;;;;;4941557;28;20047;-79
2024/03/04 08:20:00;;;;;;;4.25;1.60;;;8.90;99.90;;;;;;4959606;28;20051;-78
2024/03/04 08:22:27;;;;;;;4.03;1.30;;;8.90;99.90;;;;;;4949040;29;20039;-78
2024/03/04 08:24:54;;;;;;;3.80;1.55;;;8.90;99.90;;;;;;4957338;28;20038;-77
2024/03/04 08:27:23;;;;;;;4.72;1.83;;;8.90;99.90;;;;;;4959474;28;20039;-78
2024/03/04 08:29:50;;;;;;;5.47;1.67;;;8.90;99.90;;;;;;4958657;28;20055;-77
2024/03/04 08:32:17;;;;;;;4.82;1.83;;;9.00;99.90;;;;;;4928246;29;20055;-77
2024/03/04 08:34:49;;;;;;;4.22;1.35;;;9.00;99.90;;;;;;4950502;28;20043;-77
2024/03/04 08:37:17;;;;;;;3.55;1.40;;;9.10;99.90;;;;;;4962215;28;20403;-80
2024/03/04 08:39:47;;;;;;;5.07;1.20;;;9.20;99.90;;;;;;4956584;28;20046;-77
2024/03/04 08:42:14;;;;;;;6.30;1.40;;;9.20;99.90;;;;;;4955677;28;20146;-76
2024/03/04 08:44:41;;;;;;;6.20;1.88;;;9.20;99.90;;;;;;4949285;28;20046;-78
2024/03/04 08:47:08;;;;;;;3.53;1.25;;;9.20;99.90;;;;;;4927445;28;20054;-78
2024/03/04 08:49:38;;;;;;;3.30;1.10;;;9.20;99.90;;;;;;4973947;28;20049;-77
2024/03/04 08:52:05;;;;;;;3.15;1.17;;;9.20;99.90;;;;;;4985526;28;20410;-77
2024/03/04 08:54:32;;;;;;;2.60;1.00;;;9.30;99.90;;;;;;4959743;28;20149;-80
2024/03/04 08:56:59;;;;;;;1.92;0.73;;;9.40;99.90;;;;;;4959296;28;20054;-79
2024/03/04 08:59:26;;;;;;;4.60;1.00;;;9.50;99.90;;;;;;4925192;28;20102;-77
2024/03/04 09:01:53;;;;;;;3.28;0.98;;;9.60;99.90;;;;;;4974772;28;20043;-80
2024/03/04 09:04:20;;;;;;;3.00;1.10;;;9.60;99.90;;;;;;4975693;28;20050;-77
2024/03/04 09:06:49;;;;;;;3.33;1.13;;;9.60;99.90;;;;;;4959987;28;20527;-76
2024/03/04 09:09:19;;;;;;;2.87;0.80;;;9.60;99.90;;;;;;4943640;28;20057;-79
2024/03/04 09:11:46;;;;;;;2.22;0.75;;;9.60;99.90;;;;;;4958215;28;20365;-76
2024/03/04 09:14:13;;;;;;;1.52;0.60;;;9.70;99.90;;;;;;4977421;28;20499;-77
2024/03/04 09:16:43;;;;;;;2.55;0.80;;;9.80;99.90;;;;;;4956999;28;20415;-77
2024/03/04 09:19:10;;;;;;;2.25;1.05;;;10.00;99.90;;;;;;4943417;28;20051;-77
2024/03/04 09:21:38;;;;;;;4.65;1.30;;;10.00;99.90;;;;;;4965473;28;20053;-77
2024/03/04 09:24:06;;;;;;;3.10;1.30;;;10.10;99.60;;;;;;4914253;29;20046;-79
2024/03/04 09:26:33;;;;;;;3.45;1.33;;;10.00;99.40;;;;;;4938724;29;20043;-77
2024/03/04 09:29:03;;;;;;;3.17;0.98;;;10.00;99.30;;;;;;4960586;28;20065;-77
2024/03/04 09:31:30;;;;;;;2.53;0.85;;;10.10;99.40;;;;;;4944334;28;20043;-78
2024/03/04 09:33:57;;;;;;;2.35;0.68;;;10.20;99.30;;;;;;4943022;28;20447;-80
2024/03/04 09:36:24;;;;;;;1.92;0.65;;;10.30;99.40;;;;;;4962738;28;20046;-78
2024/03/04 09:38:53;;;;;;;1.60;0.57;;;10.40;99.40;;;;;;4970354;28;20125;-77
2024/03/04 09:41:21;;;;;;;1.60;0.70;;;10.50;99.10;;;;;;4952450;28;20070;-80
2024/03/04 09:43:49;;;;;;;2.00;0.68;;;10.60;99.10;;;;;;4959251;28;20142;-80
2024/03/04 09:46:19;;;;;;;1.95;0.55;;;10.70;99.00;;;;;;4996316;28;20077;-77
2024/03/04 09:48:48;;;;;;;2.40;0.60;;;10.70;98.40;;;;;;4977570;28;20453;-78
2024/03/04 09:51:15;;;;;;;1.88;0.65;;;10.80;98.50;;;;;;4987342;28;20050;-78
2024/03/04 09:53:42;;;;;;;3.33;0.82;;;10.70;98.10;;;;;;4971921;28;20053;-81
2024/03/04 09:56:09;;;;;;;2.30;0.60;;;10.60;98.00;;;;;;4939498;28;20077;-79
2024/03/04 09:58:36;;;;;;;2.95;0.80;;;10.60;98.20;;;;;;4943305;28;20043;-77
2024/03/04 10:01:05;;;;;;;2.55;1.05;;;10.50;97.80;;;;;;4945411;28;20448;-79
2024/03/04 10:03:34;;;;;;;4.03;1.02;;;10.40;97.40;;;;;;4960414;28;20134;-79
2024/03/04 10:06:02;;;;;;;2.35;0.70;;;10.30;97.60;;;;;;4978613;28;20054;-78
2024/03/04 10:08:29;;;;;;;3.72;0.90;;;10.30;97.90;;;;;;4967684;28;20047;-78
2024/03/04 10:10:58;;;;;;;2.67;1.10;;;10.30;97.50;;;;;;4930367;28;20039;-77
2024/03/04 10:13:26;;;;;;;3.03;1.00;;;10.20;97.30;;;;;;4940139;29;20050;-78
2024/03/04 10:15:53;;;;;;;1.80;0.60;;;10.10;97.40;;;;;;4910549;28;20477;-78
2024/03/04 10:18:23;;;;;;;2.67;1.02;;;10.10;97.50;;;;;;4954582;28;20054;-81
2024/03/04 10:20:55;;;;;;;5.72;0.65;;;10.20;97.50;;;;;;4943458;28;20053;-78
2024/03/04 10:23:24;;;;;;;2.08;0.98;;;10.30;97.50;;;;;;4960069;28;20530;-79
2024/03/04 10:26:08;;;;;;;1.60;0.60;;;10.30;97.40;;;;;;4939865;28;20102;-78
2024/03/04 10:28:41;;;;;;;2.88;0.50;;;10.50;97.40;;;;;;4945731;28;20061;-81
2024/03/04 10:31:13;;;;;;;1.55;0.43;;;10.70;97.60;;;;;;4943132;28;20051;-78
2024/03/04 10:33:40;;;;;;;0.88;0.32;;;10.80;97.20;;;;;;4929829;28;20047;-81
2024/03/04 10:36:20;;;;;;;3.55;0.40;;;10.90;97.20;;;;;;4917003;29;20063;-80
2024/03/04 10:38:47;;;;;;;3.35;0.60;;;11.00;96.90;;;;;;4975101;28;20114;-81
2024/03/04 10:41:20;;;;;;;1.58;0.52;;;11.00;96.70;;;;;;4974799;28;20078;-78
2024/03/04 10:43:48;;;;;;;2.33;0.40;;;10.90;96.50;;;;;;4958394;28;20488;-77
2024/03/04 10:46:18;;;;;;;2.85;1.00;;;10.90;96.60;;;;;;4917553;29;20051;-79
2024/03/04 10:48:48;;;;;;;3.33;0.70;;;11.00;96.60;;;;;;4942128;28;20089;-79
2024/03/04 10:51:16;;;;;;;2.80;0.50;;;11.00;96.70;;;;;;4952567;28;20051;-79
2024/03/04 10:53:43;;;;;;;2.63;0.90;;;11.10;96.50;;;;;;4944698;28;20055;-78
2024/03/04 10:56:17;;;;;;;4.45;0.60;;;11.10;96.30;;;;;;4934945;29;20062;-77
2024/03/04 10:58:44;;;;;;;3.88;0.52;;;11.10;96.20;;;;;;4939039;29;20040;-78
2024/03/04 11:01:17;;;;;;;1.77;0.65;;;11.00;96.10;;;;;;4930346;28;20043;-80
2024/03/04 11:03:50;;;;;;;2.70;0.75;;;10.90;96.40;;;;;;4969771;28;20051;-77
2024/03/04 11:06:22;;;;;;;1.40;0.45;;;10.90;96.10;;;;;;4949693;28;20043;-77
2024/03/04 11:08:57;;;;;;;2.40;0.50;;;10.90;96.30;;;;;;4958405;28;20043;-77
2024/03/04 11:11:30;;;;;;;2.38;0.57;;;10.90;96.40;;;;;;4954037;28;20507;-82
2024/03/04 11:14:09;;;;;;;1.40;0.45;;;11.00;96.20;;;;;;4967063;28;20121;-79
2024/03/04 11:17:11;;;;;;;1.75;0.40;;;11.00;96.20;;;;;;4973397;28;20499;-78
2024/03/04 11:19:50;;;;;;;3.40;0.40;;;11.00;96.40;;;;;;4933612;28;20508;-81
2024/03/04 11:22:18;;;;;;;2.75;0.38;;;11.00;96.10;;;;;;4957989;28;20073;-81
2024/03/04 11:24:46;;;;;;;0.80;0.20;;;11.00;96.10;;;;;;4944827;28;20581;-80
2024/03/04 11:27:18;;;;;;;1.75;0.20;;;11.10;96.10;;;;;;4959585;28;20089;-78
2024/03/04 11:29:49;;;;;;;1.00;0.20;;;11.30;95.90;;;;;;4974857;28;20043;-80
2024/03/04 11:32:26;;;;;;;0.82;0.20;;;11.40;95.80;;;;;;4961440;28;20050;-82
2024/03/04 11:35:23;;;;;;;0.85;0.20;;;11.50;95.50;;;;;;4976059;28;20352;-84
2024/03/04 11:38:06;;;;;;;1.25;0.30;;;11.60;95.50;;;;;;4976785;28;20054;-83
2024/03/04 11:40:34;;;;;;;1.50;0.38;;;11.80;95.30;;;;;;4977084;28;20051;-83
2024/03/04 11:43:01;;;;;;;1.45;0.20;;;11.90;95.30;;;;;;4950346;28;20050;-83
2024/03/04 11:45:33;;;;;;;1.30;0.10;;;11.90;95.10;;;;;;4909120;29;20501;-87
2024/03/04 11:48:01;;;;;;;0.28;0.00;;;11.90;95.10;;;;;;4938692;29;20047;-85
2024/03/04 11:50:37;;;;;;;2.13;0.28;;;12.00;95.20;;;;;;4968355;28;20057;-85
2024/03/04 11:53:30;;;;;;;1.05;0.10;;;12.10;94.90;;;;;;4967116;28;20043;-82
2024/03/04 11:55:57;;;;;;;0.20;0.10;;;12.20;94.70;;;;;;4977010;28;20136;-85
2024/03/04 11:58:26;;;;;;;0.32;0.10;;;12.30;94.80;;;;;;4961286;28;20058;-82
2024/03/04 12:00:55;;;;;;;0.40;0.10;;;12.30;94.60;;;;;;4946625;28;20046;-82
2024/03/04 12:03:34;;;;;;;1.45;0.20;;;12.40;94.50;;;;;;4930357;28;20077;-81
2024/03/04 12:06:01;;;;;;;0.45;0.10;;;12.50;94.40;;;;;;4946592;28;20043;-84
2024/03/04 12:08:28;;;;;;;0.50;0.10;;;12.70;94.30;;;;;;4943494;28;20046;-85
2024/03/04 12:11:16;;;;;;;0.93;0.10;;;12.70;94.10;;;;;;4916977;28;20085;-83
2024/03/04 12:13:43;;;;;;;1.17;0.10;;;12.70;94.00;;;;;;4927036;28;20061;-86
2024/03/04 12:16:13;;;;;;;0.65;0.10;;;12.70;94.00;;;;;;4946072;28;20054;-87
2024/03/04 12:18:40;;;;;;;0.43;0.10;;;12.70;94.00;;;;;;4942219;28;20098;-85
2024/03/04 12:21:07;;;;;;;1.20;0.10;;;12.70;93.80;;;;;;4928327;28;20094;-82
2024/03/04 12:23:35;;;;;;;0.50;0.15;;;12.80;93.80;;;;;;4941222;28;20543;-79
2024/03/04 12:26:13;;;;;;;0.47;0.10;;;12.90;93.70;;;;;;4953923;28;20562;-79
2024/03/04 12:28:40;;;;;;;1.15;0.47;;;13.00;93.40;;;;;;4932916;28;20042;-78
2024/03/04 12:31:11;;;;;;;1.70;0.13;;;12.90;93.10;;;;;;4957071;28;20579;-84
2024/03/04 12:33:39;;;;;;;0.73;0.03;;;12.90;93.10;;;;;;4975356;28;20047;-84
2024/03/04 12:36:07;;;;;;;0.52;0.10;;;12.80;93.10;;;;;;4970967;28;20145;-82
2024/03/04 12:38:34;;;;;;;1.35;0.20;;;12.80;93.20;;;;;;4940820;28;20069;-86
2024/03/04 12:41:03;;;;;;;0.40;0.10;;;12.70;93.10;;;;;;4946016;28;20050;-84
2024/03/04 12:43:30;;;;;;;1.90;0.10;;;12.80;93.10;;;;;;4973250;28;20043;-84
2024/03/04 12:46:00;;;;;;;0.70;0.10;;;12.90;92.80;;;;;;4957214;28;20042;-84
2024/03/04 12:48:27;;;;;;;0.38;0.20;;;13.00;92.50;;;;;;4926214;28;20047;-85
2024/03/04 12:50:54;;;;;;;1.08;0.15;;;13.00;91.80;;;;;;4970043;28;20039;-80
2024/03/04 12:53:25;;;;;;;0.32;0.10;;;13.10;92.00;;;;;;4961804;28;20054;-85
2024/03/04 12:55:52;;;;;;;0.80;0.10;;;13.20;91.80;;;;;;4957653;28;20068;-88